Time;durP1;ratioP1;P1;durP2;ratioP2;P2;SDS_P1;SDS_P2;PMS_P1;PMS_P2;Temp;Humidity;BMP_temperature;BMP_pressure;BME280_temperature;BME280_humidity;BME280_pressure;Samples;Min_cycle;Max_cycle;Signal;HPM_P1;HPM_P2
2022/02/17 00:00:49;;;;;;;36.13;5.22;;;;;;;9.24;100.00;98863.16;5071046;28;20051;-30
2022/02/17 00:03:18;;;;;;;33.92;6.15;;;;;;;9.20;100.00;98853.03;5071951;28;20055;-30
2022/02/17 00:05:47;;;;;;;28.45;5.43;;;;;;;9.19;100.00;98846.66;5070110;28;20517;-32
2022/02/17 00:08:22;;;;;;;29.75;5.13;;;;;;;9.21;100.00;98871.34;5070261;28;20110;-31
2022/02/17 00:10:50;;;;;;;30.65;5.93;;;;;;;9.20;100.00;98862.19;5070754;28;20412;-33
2022/02/17 00:13:18;;;;;;;38.63;5.57;;;;;;;9.21;100.00;98865.78;5071530;28;20078;-30
2022/02/17 00:15:47;;;;;;;32.65;4.88;;;;;;;9.23;100.00;98867.09;5070498;28;20478;-31
2022/02/17 00:18:21;;;;;;;34.83;5.50;;;;;;;9.20;100.00;98878.88;5062413;28;20055;-31
2022/02/17 00:20:52;;;;;;;32.78;5.78;;;;;;;9.18;100.00;98872.06;5071209;28;20484;-30
2022/02/17 00:23:20;;;;;;;29.77;5.40;;;;;;;9.16;100.00;98885.50;5070696;28;20131;-30
2022/02/17 00:25:49;;;;;;;26.88;4.82;;;;;;;9.18;100.00;98894.31;5071503;28;20437;-32
2022/02/17 00:28:17;;;;;;;31.15;5.30;;;;;;;9.15;100.00;98884.69;5071363;28;20481;-31
2022/02/17 00:30:45;;;;;;;35.20;5.53;;;;;;;9.15;100.00;98906.94;5070407;28;20068;-31
2022/02/17 00:33:12;;;;;;;33.08;5.55;;;;;;;9.13;100.00;98925.13;5071147;28;20051;-31
2022/02/17 00:35:44;;;;;;;31.83;5.22;;;;;;;9.10;100.00;98926.59;5069746;28;20040;-30
2022/02/17 00:38:13;;;;;;;31.00;5.07;;;;;;;9.13;100.00;98931.50;5069980;28;20131;-29
2022/02/17 00:40:41;;;;;;;23.75;3.70;;;;;;;9.10;100.00;98960.00;5059867;28;20036;-30
2022/02/17 00:43:09;;;;;;;29.00;4.60;;;;;;;9.09;100.00;98943.63;5070297;28;20497;-31
2022/02/17 00:45:36;;;;;;;32.40;4.93;;;;;;;9.06;100.00;98950.69;5070751;28;20044;-31
2022/02/17 00:48:05;;;;;;;23.63;4.63;;;;;;;9.03;100.00;98993.06;5069447;28;20056;-30
2022/02/17 00:50:39;;;;;;;26.15;5.00;;;;;;;8.98;100.00;98971.03;5065878;28;20056;-31
2022/02/17 00:53:08;;;;;;;26.88;4.55;;;;;;;8.96;100.00;98976.94;5071147;28;20056;-30
2022/02/17 00:55:37;;;;;;;28.92;5.05;;;;;;;8.93;100.00;98999.03;5068188;28;20044;-31
2022/02/17 00:58:05;;;;;;;28.65;4.78;;;;;;;8.89;100.00;98993.31;5068534;28;20052;-30
2022/02/17 01:00:35;;;;;;;26.50;5.03;;;;;;;8.86;100.00;98995.94;5069435;28;20447;-30
2022/02/17 01:03:10;;;;;;;28.42;4.80;;;;;;;8.84;100.00;98978.75;5069592;28;20540;-31
2022/02/17 01:05:38;;;;;;;24.05;4.78;;;;;;;8.81;100.00;98998.91;5069863;28;20055;-30
2022/02/17 01:08:06;;;;;;;31.85;5.85;;;;;;;8.77;100.00;99003.50;5070763;28;20044;-30
2022/02/17 01:10:34;;;;;;;27.77;5.47;;;;;;;8.74;100.00;99009.75;5070752;28;20047;-31
2022/02/17 01:13:05;;;;;;;30.45;5.13;;;;;;;8.71;100.00;99033.47;5072041;28;20360;-30
2022/02/17 01:15:33;;;;;;;28.98;4.85;;;;;;;8.68;100.00;99024.97;5074512;28;20047;-30
2022/02/17 01:18:02;;;;;;;32.55;4.93;;;;;;;8.67;100.00;99062.25;5073115;28;20052;-31
2022/02/17 01:20:33;;;;;;;29.30;5.13;;;;;;;8.64;100.00;99044.25;5073059;28;20456;-31
2022/02/17 01:23:00;;;;;;;32.30;5.15;;;;;;;8.63;100.00;99062.91;5073204;28;20060;-31
2022/02/17 01:25:28;;;;;;;32.05;5.25;;;;;;;8.62;100.00;99057.69;5065320;28;20072;-30
2022/02/17 01:27:57;;;;;;;30.15;5.28;;;;;;;8.61;100.00;99062.41;5072877;28;20049;-30
2022/02/17 01:30:28;;;;;;;30.75;4.78;;;;;;;8.61;100.00;99042.97;5073012;28;20052;-30
2022/02/17 01:32:56;;;;;;;25.92;4.45;;;;;;;8.60;100.00;99060.78;5073949;28;20052;-32
2022/02/17 01:35:25;;;;;;;26.77;5.43;;;;;;;8.60;100.00;99040.50;5072955;28;20048;-30
2022/02/17 01:38:01;;;;;;;25.83;4.32;;;;;;;8.61;100.00;99065.19;5073035;28;20048;-31
2022/02/17 01:40:30;;;;;;;28.25;5.05;;;;;;;8.63;100.00;99071.25;5071993;28;20052;-32
2022/02/17 01:42:58;;;;;;;29.65;5.07;;;;;;;8.62;100.00;99102.97;5073291;28;20056;-30
2022/02/17 01:45:30;;;;;;;33.33;5.65;;;;;;;8.62;100.00;99077.97;5072872;28;20131;-30
2022/02/17 01:47:58;;;;;;;37.33;6.35;;;;;;;8.61;100.00;99109.69;5073080;28;20068;-31
2022/02/17 01:50:33;;;;;;;34.45;5.18;;;;;;;8.58;100.00;99088.13;5073221;28;20051;-31
2022/02/17 01:53:00;;;;;;;30.98;5.95;;;;;;;8.57;100.00;99091.22;5074178;28;20079;-31
2022/02/17 01:55:35;;;;;;;34.40;5.15;;;;;;;8.56;100.00;99095.16;5070963;28;20048;-32
2022/02/17 01:58:03;;;;;;;28.85;4.78;;;;;;;8.55;100.00;99112.97;5072067;28;20058;-30
2022/02/17 02:00:33;;;;;;;33.63;5.18;;;;;;;8.54;100.00;99108.56;5072066;28;20052;-32
2022/02/17 02:03:05;;;;;;;26.85;4.80;;;;;;;8.52;100.00;99135.88;5071763;28;20048;-32
2022/02/17 02:05:53;;;;;;;33.63;5.15;;;;;;;8.51;100.00;99131.47;5073459;28;20052;-30
2022/02/17 02:08:22;;;;;;;29.05;5.05;;;;;;;8.50;100.00;99127.03;5071222;28;20377;-30
2022/02/17 02:10:51;;;;;;;34.58;5.30;;;;;;;8.48;100.00;99141.28;5072210;28;20459;-30
2022/02/17 02:13:18;;;;;;;31.23;6.00;;;;;;;8.47;100.00;99155.50;5070319;28;20067;-29
2022/02/17 02:15:51;;;;;;;32.72;6.65;;;;;;;8.47;100.00;99147.97;5071454;28;20067;-29
2022/02/17 02:18:22;;;;;;;30.73;6.03;;;;;;;8.47;100.00;99177.72;5070811;28;20085;-31
2022/02/17 02:20:54;;;;;;;;;;;;;;;8.42;100.00;99166.75;5074309;28;20052;-31
2022/02/17 02:23:33;;;;;;;36.95;6.07;;;;;;;8.42;100.00;99184.25;5070618;28;19973;-31
2022/02/17 02:26:03;;;;;;;36.70;6.15;;;;;;;8.42;100.00;99192.59;5072189;28;20623;-32
2022/02/17 02:28:33;;;;;;;39.17;6.10;;;;;;;8.44;100.00;99195.06;5072543;28;20049;-31
2022/02/17 02:31:03;;;;;;;;;;;;;;;8.37;100.00;99208.63;5073021;28;20401;-31
2022/02/17 02:33:31;;;;;;;37.45;6.18;;;;;;;8.33;100.00;99200.13;5073270;28;20007;-31
2022/02/17 02:36:01;;;;;;;31.27;5.97;;;;;;;8.37;100.00;99223.34;5072586;28;20063;-31
2022/02/17 02:38:49;;;;;;;32.72;5.55;;;;;;;8.35;100.00;99233.97;5072736;28;20044;-30
2022/02/17 02:41:21;;;;;;;39.25;5.72;;;;;;;8.33;100.00;99215.97;5071355;28;20558;-30
2022/02/17 02:43:52;;;;;;;28.00;5.22;;;;;;;8.34;100.00;99231.50;5071126;28;20056;-30
2022/02/17 02:46:20;;;;;;;26.48;5.40;;;;;;;8.35;100.00;99244.25;5071634;28;20047;-30
2022/02/17 02:48:52;;;;;;;33.70;5.13;;;;;;;8.33;100.00;99239.03;5071924;28;20102;-33
2022/02/17 02:51:22;;;;;;;35.65;5.05;;;;;;;8.37;100.00;99248.38;5070901;28;20051;-30
2022/02/17 02:53:50;;;;;;;34.22;4.97;;;;;;;8.32;100.00;99256.84;5073047;28;20522;-30
2022/02/17 02:56:18;;;;;;;34.03;4.88;;;;;;;8.32;100.00;99267.97;5072103;28;20044;-30
2022/02/17 02:58:46;;;;;;;33.22;5.05;;;;;;;8.33;100.00;99258.47;5070767;28;20127;-31
2022/02/17 03:01:14;;;;;;;32.78;5.18;;;;;;;8.34;100.00;99274.03;5071835;28;20139;-30
2022/02/17 03:03:49;;;;;;;34.42;5.30;;;;;;;8.34;100.00;99301.00;5070902;28;20048;-32
2022/02/17 03:06:18;;;;;;;32.70;4.93;;;;;;;8.32;100.00;99278.22;5071224;28;20048;-31
2022/02/17 03:08:47;;;;;;;31.90;5.65;;;;;;;8.32;100.00;99284.63;5072690;28;20044;-30
2022/02/17 03:11:18;;;;;;;29.80;5.53;;;;;;;8.32;100.00;99272.66;5069831;28;20058;-30
2022/02/17 03:13:46;;;;;;;32.92;5.15;;;;;;;8.29;100.00;99282.47;5071442;28;20037;-30
2022/02/17 03:16:13;;;;;;;33.03;5.75;;;;;;;8.29;100.00;99307.47;5072751;28;20135;-30
2022/02/17 03:18:41;;;;;;;30.48;4.90;;;;;;;8.30;100.00;99317.47;5071820;28;20539;-31
2022/02/17 03:21:14;;;;;;;33.75;6.22;;;;;;;8.30;100.00;99321.06;5070936;28;20045;-32
2022/02/17 03:23:42;;;;;;;27.83;5.50;;;;;;;8.27;100.00;99316.13;5071009;28;20124;-32
2022/02/17 03:26:16;;;;;;;35.08;5.63;;;;;;;8.25;100.00;99317.59;5059708;28;20044;-30
2022/02/17 03:28:45;;;;;;;28.02;5.63;;;;;;;8.20;100.00;99320.50;5071381;28;20507;-30
2022/02/17 03:31:15;;;;;;;26.67;4.82;;;;;;;8.19;100.00;99335.56;5070622;28;20052;-30
2022/02/17 03:33:55;;;;;;;30.63;6.05;;;;;;;8.19;100.00;99335.56;5070186;28;20105;-31
2022/02/17 03:36:25;;;;;;;31.08;5.13;;;;;;;8.15;100.00;99351.22;5070181;28;20135;-31
2022/02/17 03:38:59;;;;;;;34.40;5.15;;;;;;;8.16;100.00;99359.25;5069554;28;20498;-30
2022/02/17 03:41:57;;;;;;;23.08;4.70;;;;;;;8.14;100.00;99355.97;5054458;28;20185;-33
2022/02/17 03:44:29;;;;;;;34.65;5.32;;;;;;;8.14;100.00;99352.38;5070646;28;20062;-30
2022/02/17 03:47:08;;;;;;;28.98;4.97;;;;;;;8.14;100.00;99344.84;5070188;28;20044;-30
2022/02/17 03:49:47;;;;;;;34.65;5.97;;;;;;;8.10;100.00;99345.81;5070543;28;20143;-30
2022/02/17 03:52:15;;;;;;;30.38;5.25;;;;;;;8.09;100.00;99363.63;5071338;28;20036;-30
2022/02/17 03:54:48;;;;;;;33.88;5.53;;;;;;;8.09;100.00;99364.44;5069949;28;20044;-30
2022/02/17 03:57:18;;;;;;;29.70;4.93;;;;;;;8.09;100.00;99363.63;5069972;28;20121;-30
2022/02/17 03:59:48;;;;;;;32.38;6.15;;;;;;;8.09;100.00;99377.50;5070213;28;20599;-30
2022/02/17 04:02:16;;;;;;;32.75;5.90;;;;;;;8.09;100.00;99396.97;5068812;28;20079;-30
2022/02/17 04:04:44;;;;;;;30.13;5.28;;;;;;;8.04;100.00;99389.56;5071922;28;20056;-29
2022/02/17 04:07:14;;;;;;;29.58;4.55;;;;;;;8.03;100.00;99374.03;5070626;28;20095;-30
2022/02/17 04:09:43;;;;;;;29.17;4.68;;;;;;;8.01;100.00;99387.41;5070215;28;20045;-30
2022/02/17 04:12:14;;;;;;;28.77;5.72;;;;;;;8.00;100.00;99408.00;5069852;28;20048;-30
2022/02/17 04:14:45;;;;;;;30.10;5.05;;;;;;;7.99;100.00;99408.34;5069469;28;20110;-30
2022/02/17 04:17:14;;;;;;;36.90;5.75;;;;;;;7.98;100.00;99398.38;5069650;28;20055;-30
2022/02/17 04:20:02;;;;;;;26.10;4.82;;;;;;;7.97;100.00;99405.06;5060806;28;20067;-32
2022/02/17 04:22:50;;;;;;;30.13;4.95;;;;;;;7.93;100.00;99418.75;5067674;28;20216;-30
2022/02/17 04:25:28;;;;;;;26.42;5.03;;;;;;;7.95;100.00;99447.88;5070083;28;20044;-29
2022/02/17 04:27:56;;;;;;;33.63;5.43;;;;;;;7.92;100.00;99445.72;5070884;28;20036;-30
2022/02/17 04:30:25;;;;;;;24.48;4.75;;;;;;;7.94;100.00;99435.13;5070324;28;20097;-30
2022/02/17 04:32:53;;;;;;;27.45;5.25;;;;;;;7.91;100.00;99441.28;5069403;28;20405;-30
2022/02/17 04:35:37;;;;;;;32.60;5.95;;;;;;;7.90;100.00;99475.75;5058873;28;20125;-30
2022/02/17 04:38:04;;;;;;;29.83;5.43;;;;;;;7.89;100.00;99476.06;5070876;28;20131;-31
2022/02/17 04:43:30;;;;;;;23.85;4.72;;;;;;;7.90;100.00;99483.28;5067199;28;20496;-31
2022/02/17 04:45:59;;;;;;;32.55;5.38;;;;;;;7.93;100.00;99465.97;5069779;28;20084;-30
2022/02/17 04:48:27;;;;;;;25.98;5.05;;;;;;;7.92;100.00;99509.59;5066831;28;20049;-31
2022/02/17 04:50:57;;;;;;;32.90;5.78;;;;;;;7.91;100.00;99499.63;5068481;28;20425;-32
2022/02/17 04:53:25;;;;;;;32.42;5.28;;;;;;;7.90;100.00;99524.94;5070001;28;20053;-30
2022/02/17 04:55:57;;;;;;;36.45;5.85;;;;;;;7.89;100.00;99534.41;5069532;28;20088;-31
2022/02/17 04:58:25;;;;;;;27.02;5.45;;;;;;;7.86;100.00;99512.81;5068558;28;20406;-31
2022/02/17 05:00:53;;;;;;;29.27;4.40;;;;;;;7.82;100.00;99532.03;5065975;28;20550;-31
2022/02/17 05:03:47;;;;;;;25.63;5.07;;;;;;;7.81;100.00;99558.16;5068653;28;20121;-30
2022/02/17 05:06:18;;;;;;;29.00;5.05;;;;;;;7.80;100.00;99550.97;5071300;28;20448;-30
2022/02/17 05:08:56;;;;;;;28.05;5.07;;;;;;;7.77;100.00;99553.59;5069420;28;20056;-30
2022/02/17 05:11:24;;;;;;;33.95;5.38;;;;;;;7.75;100.00;99561.41;5068932;28;20051;-30
2022/02/17 05:13:55;;;;;;;36.25;5.70;;;;;;;7.72;100.00;99587.00;5069190;28;20041;-29
2022/02/17 05:16:23;;;;;;;23.92;4.72;;;;;;;7.70;100.00;99587.31;5069258;28;20071;-31
2022/02/17 05:18:52;;;;;;;35.10;6.03;;;;;;;7.70;100.00;99580.94;5068462;28;20113;-30
2022/02/17 05:21:25;;;;;;;28.75;5.05;;;;;;;7.67;100.00;99587.94;5068502;28;20048;-31
2022/02/17 05:24:11;;;;;;;28.92;4.55;;;;;;;7.66;100.00;99593.78;5070822;28;20500;-31
2022/02/17 05:27:11;;;;;;;32.38;4.47;;;;;;;7.62;100.00;99613.03;5070199;28;20087;-29
2022/02/17 05:29:50;;;;;;;32.08;5.15;;;;;;;7.60;100.00;99607.78;5065581;28;20052;-32
2022/02/17 05:32:43;;;;;;;27.17;4.97;;;;;;;7.59;100.00;99630.31;5051394;28;20053;-33
2022/02/17 05:35:23;;;;;;;29.35;4.60;;;;;;;7.58;100.00;99632.28;5069344;28;20452;-31
2022/02/17 05:37:58;;;;;;;33.40;4.68;;;;;;;7.58;100.00;99626.72;5069221;28;20515;-32
2022/02/17 05:40:53;;;;;;;27.65;4.32;;;;;;;7.54;100.00;99616.53;5060143;28;20386;-30
2022/02/17 05:43:20;;;;;;;23.65;3.65;;;;;;;7.53;100.00;99632.38;5070178;28;20048;-31
2022/02/17 05:45:48;;;;;;;30.52;5.40;;;;;;;7.53;100.00;99631.56;5058690;28;20064;-31
2022/02/17 05:48:16;;;;;;;30.92;5.25;;;;;;;7.51;100.00;99656.03;5070530;28;20124;-30
2022/02/17 05:50:45;;;;;;;23.45;4.47;;;;;;;7.51;100.00;99656.84;5070426;28;20059;-31
2022/02/17 05:53:13;;;;;;;27.67;4.55;;;;;;;7.50;100.00;99635.75;5069762;28;20052;-31
2022/02/17 05:55:41;;;;;;;25.90;4.18;;;;;;;7.49;100.00;99638.84;5070118;28;20056;-30
2022/02/17 05:58:12;;;;;;;23.43;4.60;;;;;;;7.48;100.00;99659.41;5071829;28;20463;-32
2022/02/17 06:00:41;;;;;;;32.10;5.45;;;;;;;7.49;100.00;99666.59;5071928;28;20094;-31
2022/02/17 06:03:09;;;;;;;26.92;4.63;;;;;;;7.44;100.00;99684.16;5074613;28;20121;-29
2022/02/17 06:05:37;;;;;;;30.83;5.10;;;;;;;7.42;100.00;99694.75;5072433;28;20143;-31
2022/02/17 06:08:07;;;;;;;29.23;4.55;;;;;;;7.38;100.00;99699.28;5073153;28;20043;-30
2022/02/17 06:10:36;;;;;;;27.80;4.10;;;;;;;7.38;100.00;99695.69;5073683;28;20045;-30
2022/02/17 06:13:04;;;;;;;26.15;4.53;;;;;;;7.38;100.00;99704.03;5073887;28;20055;-30
2022/02/17 06:15:32;;;;;;;26.17;4.63;;;;;;;7.37;100.00;99702.38;5073024;28;20063;-30
2022/02/17 06:18:00;;;;;;;24.58;4.28;;;;;;;7.35;100.00;99718.50;5073458;28;20076;-30
2022/02/17 06:20:28;;;;;;;21.77;4.47;;;;;;;7.32;100.00;99719.13;5073651;28;20062;-30
2022/02/17 06:22:56;;;;;;;34.17;4.95;;;;;;;7.31;100.00;99731.34;5072827;28;20060;-29
2022/02/17 06:25:25;;;;;;;31.63;5.50;;;;;;;7.29;100.00;99728.03;5073483;28;20045;-31
2022/02/17 06:27:53;;;;;;;28.55;4.32;;;;;;;7.28;100.00;99743.03;5072802;28;20508;-31
2022/02/17 06:30:23;;;;;;;28.50;5.30;;;;;;;7.25;100.00;99738.94;5073237;28;20397;-30
2022/02/17 06:32:52;;;;;;;22.98;4.10;;;;;;;7.21;100.00;99765.63;5073169;28;20102;-31
2022/02/17 06:35:29;;;;;;;27.13;4.20;;;;;;;7.18;100.00;99747.66;5072370;28;20048;-32
2022/02/17 06:37:59;;;;;;;28.05;4.53;;;;;;;7.20;100.00;99761.19;5073312;28;20048;-30
2022/02/17 06:40:29;;;;;;;27.98;4.68;;;;;;;7.21;100.00;99780.31;5073062;28;20501;-30
2022/02/17 06:42:56;;;;;;;30.05;4.28;;;;;;;7.18;100.00;99794.81;5072112;28;20225;-30
2022/02/17 06:45:27;;;;;;;25.83;3.78;;;;;;;7.16;100.00;99799.84;5072677;28;20441;-29
2022/02/17 06:47:55;;;;;;;28.33;4.13;;;;;;;7.16;100.00;99813.72;5071923;28;20067;-29
2022/02/17 06:50:23;;;;;;;22.10;3.60;;;;;;;7.13;100.00;99811.53;5071287;28;20048;-30
2022/02/17 06:52:51;;;;;;;23.27;4.55;;;;;;;7.14;100.00;99817.91;5071335;28;20055;-29
2022/02/17 06:55:18;;;;;;;21.52;3.78;;;;;;;7.14;100.00;99835.38;5071524;28;20569;-31
2022/02/17 06:57:47;;;;;;;22.95;3.78;;;;;;;7.16;100.00;99830.38;5068272;28;20197;-30
2022/02/17 07:00:16;;;;;;;26.38;4.13;;;;;;;7.13;100.00;99841.25;5072521;28;20483;-30
2022/02/17 07:02:51;;;;;;;29.05;4.22;;;;;;;7.12;100.00;99834.88;5070364;28;20086;-31
2022/02/17 07:05:20;;;;;;;29.20;4.63;;;;;;;7.11;100.00;99855.41;5071450;28;20074;-31
2022/02/17 07:07:48;;;;;;;20.48;3.20;;;;;;;7.10;100.00;99867.63;5070993;28;20091;-30
2022/02/17 07:10:54;;;;;;;27.58;4.38;;;;;;;7.11;100.00;99876.78;5069793;28;20127;-30
2022/02/17 07:13:07;;;;;;;20.95;3.28;;;;;;;7.08;100.00;99864.31;5070626;28;20135;-30
2022/02/17 07:15:35;;;;;;;25.83;4.07;;;;;;;7.06;100.00;99883.22;5072024;28;20042;-32
2022/02/17 07:18:04;;;;;;;27.88;4.05;;;;;;;7.09;100.00;99896.50;5070475;28;20131;-30
2022/02/17 07:20:32;;;;;;;29.80;4.22;;;;;;;7.10;100.00;99892.59;5068626;28;20248;-32
2022/02/17 07:23:02;;;;;;;27.08;4.20;;;;;;;7.13;100.00;99902.28;5071150;28;20082;-31
2022/02/17 07:25:31;;;;;;;24.08;3.60;;;;;;;7.15;100.00;99908.34;5069740;28;20040;-31
2022/02/17 07:28:00;;;;;;;26.02;3.92;;;;;;;7.21;100.00;99916.28;5071369;28;20049;-32
2022/02/17 07:30:29;;;;;;;22.75;4.10;;;;;;;7.24;100.00;99932.31;5071011;28;20063;-30
2022/02/17 07:32:57;;;;;;;24.35;4.95;;;;;;;7.30;100.00;99940.59;5070470;28;20094;-31
2022/02/17 07:35:30;;;;;;;30.25;4.63;;;;;;;7.32;100.00;99946.66;5070826;28;20048;-31
2022/02/17 07:37:58;;;;;;;28.10;4.20;;;;;;;7.35;100.00;99948.84;5069896;28;20052;-30
2022/02/17 07:40:26;;;;;;;28.20;4.57;;;;;;;7.40;100.00;99952.34;5071161;28;20045;-30
2022/02/17 07:42:55;;;;;;;26.40;4.05;;;;;;;7.44;100.00;99963.69;5071014;28;20473;-32
2022/02/17 07:45:23;;;;;;;27.30;3.97;;;;;;;7.51;100.00;99964.13;5070109;28;20056;-31
2022/02/17 07:47:54;;;;;;;20.00;3.15;;;;;;;7.57;100.00;99965.72;5070913;28;20129;-33
2022/02/17 07:50:25;;;;;;;22.58;3.58;;;;;;;7.65;100.00;99980.84;5070608;28;20055;-32
2022/02/17 07:52:53;;;;;;;24.08;3.80;;;;;;;7.70;100.00;99978.00;5070257;28;20083;-31
2022/02/17 07:55:24;;;;;;;19.95;3.90;;;;;;;7.72;100.00;99996.00;5070929;28;20056;-31
2022/02/17 07:57:52;;;;;;;27.35;4.45;;;;;;;7.74;100.00;99993.75;5070804;28;20136;-31
2022/02/17 08:00:19;;;;;;;27.25;4.07;;;;;;;7.73;100.00;99961.56;5068339;28;20227;-31
2022/02/17 08:02:47;;;;;;;28.95;4.82;;;;;;;7.79;100.00;99987.31;5070423;28;20421;-31
2022/02/17 08:05:20;;;;;;;25.33;3.83;;;;;;;7.84;100.00;99996.38;5070562;28;20048;-31
2022/02/17 08:07:48;;;;;;;28.75;4.95;;;;;;;7.94;100.00;100009.28;5070062;28;20496;-32
2022/02/17 08:10:19;;;;;;;19.65;3.72;;;;;;;8.04;100.00;100011.03;5070480;28;20071;-38
2022/02/17 08:12:48;;;;;;;23.55;3.50;;;;;;;8.13;100.00;100032.28;5070336;28;20071;-32
2022/02/17 08:15:16;;;;;;;22.13;3.70;;;;;;;8.24;100.00;100027.38;5069718;28;20170;-37
2022/02/17 08:17:44;;;;;;;19.25;3.75;;;;;;;8.40;100.00;100042.69;5070834;28;20171;-33
2022/02/17 08:20:13;;;;;;;25.23;3.95;;;;;;;8.59;99.91;100053.78;5067728;28;20060;-31
2022/02/17 08:22:49;;;;;;;25.23;4.22;;;;;;;8.79;98.92;100041.44;5070171;28;20040;-31
2022/02/17 08:25:18;;;;;;;25.10;3.45;;;;;;;8.94;96.31;100055.88;5069774;28;20510;-33
2022/02/17 08:27:46;;;;;;;29.90;4.20;;;;;;;9.10;95.00;100050.00;5065973;28;20037;-32
2022/02/17 08:30:15;;;;;;;25.70;3.78;;;;;;;9.26;94.29;100037.41;5070102;28;20135;-34
2022/02/17 08:32:47;;;;;;;20.25;3.28;;;;;;;9.47;93.81;100040.59;5070145;28;20482;-30
2022/02/17 08:35:15;;;;;;;17.73;3.25;;;;;;;9.62;91.19;100051.38;5070317;28;20142;-30
2022/02/17 08:37:44;;;;;;;22.08;3.90;;;;;;;9.70;88.89;100047.03;5070486;28;20059;-30
2022/02/17 08:40:14;;;;;;;19.45;3.53;;;;;;;9.76;89.02;100054.16;5071262;28;20087;-32
2022/02/17 08:42:42;;;;;;;17.40;3.90;;;;;;;9.84;88.70;100073.72;5070098;28;20135;-31
2022/02/17 08:45:10;;;;;;;23.13;4.03;;;;;;;10.03;89.40;100081.94;5071266;28;20052;-32
2022/02/17 08:47:39;;;;;;;21.33;4.40;;;;;;;10.25;89.19;100081.16;5070662;28;20070;-31
2022/02/17 08:50:09;;;;;;;20.45;3.95;;;;;;;10.33;85.63;100091.56;5067540;28;20086;-32
2022/02/17 08:52:37;;;;;;;22.98;4.15;;;;;;;10.47;86.57;100075.59;5070937;28;20048;-31
2022/02/17 08:55:07;;;;;;;24.80;4.20;;;;;;;10.66;85.91;100106.91;5071363;28;20063;-32
2022/02/17 08:57:36;;;;;;;19.85;4.00;;;;;;;10.86;85.93;100122.28;5069840;28;20059;-31
2022/02/17 09:00:06;;;;;;;22.08;3.65;;;;;;;11.08;83.69;100127.00;5070892;28;20071;-31
2022/02/17 09:02:36;;;;;;;17.17;3.33;;;;;;;11.20;83.23;100143.97;5070293;28;20048;-32
2022/02/17 09:05:05;;;;;;;22.42;4.15;;;;;;;11.33;82.33;100150.63;5069443;28;20501;-30
2022/02/17 09:07:33;;;;;;;16.48;3.28;;;;;;;11.36;81.46;100147.19;5069798;28;20036;-32
2022/02/17 09:10:01;;;;;;;21.20;4.05;;;;;;;11.46;80.81;100148.88;5070311;28;20045;-31
2022/02/17 09:12:31;;;;;;;16.33;3.20;;;;;;;11.46;78.92;100174.00;5070793;28;20036;-31
2022/02/17 09:15:01;;;;;;;16.75;3.67;;;;;;;11.44;78.97;100181.88;5071026;28;20401;-30
2022/02/17 09:17:29;;;;;;;19.20;3.67;;;;;;;11.54;79.83;100167.66;5070026;28;20047;-31
2022/02/17 09:19:57;;;;;;;20.75;3.83;;;;;;;11.65;78.29;100185.75;5059667;28;20048;-33
2022/02/17 09:22:24;;;;;;;25.75;4.10;;;;;;;11.74;79.16;100184.66;5070758;28;20052;-30
2022/02/17 09:24:52;;;;;;;21.02;4.07;;;;;;;11.91;78.46;100195.09;5069910;28;20044;-32
2022/02/17 09:27:20;;;;;;;18.27;3.55;;;;;;;12.11;77.94;100187.25;5069197;28;20490;-31
2022/02/17 09:29:48;;;;;;;17.60;3.40;;;;;;;12.15;76.44;100189.06;5069971;28;20127;-31
2022/02/17 09:32:25;;;;;;;21.92;3.78;;;;;;;12.22;76.18;100195.00;5068610;28;20084;-31
2022/02/17 09:34:53;;;;;;;19.27;3.08;;;;;;;12.31;75.37;100204.25;5073414;28;20128;-32
2022/02/17 09:37:21;;;;;;;15.95;3.20;;;;;;;12.37;72.10;100208.53;5074284;28;20090;-31
2022/02/17 09:39:49;;;;;;;21.63;3.42;;;;;;;12.39;73.63;100205.38;5073602;28;20045;-31
2022/02/17 09:42:17;;;;;;;18.38;3.60;;;;;;;12.40;72.63;100213.44;5074325;28;20493;-30
2022/02/17 09:44:46;;;;;;;17.58;3.38;;;;;;;12.45;73.03;100206.88;5073352;28;20049;-32
2022/02/17 09:47:15;;;;;;;13.68;2.70;;;;;;;12.49;71.92;100221.03;5074099;28;20053;-32
2022/02/17 09:49:45;;;;;;;18.10;3.17;;;;;;;12.45;71.35;100203.25;5074499;28;20048;-32
2022/02/17 09:52:13;;;;;;;20.25;3.58;;;;;;;12.55;72.46;100230.94;5073461;28;20040;-32
2022/02/17 09:54:41;;;;;;;19.58;3.45;;;;;;;12.51;71.71;100225.16;5073383;28;20053;-30
2022/02/17 09:57:10;;;;;;;19.33;3.35;;;;;;;12.58;72.32;100242.31;5074116;28;20046;-31
2022/02/17 09:59:38;;;;;;;16.23;3.22;;;;;;;12.60;71.83;100239.97;5071683;28;20212;-30
2022/02/17 10:02:09;;;;;;;14.95;2.80;;;;;;;12.51;71.64;100257.94;5073824;28;20126;-31
2022/02/17 10:04:37;;;;;;;21.25;3.50;;;;;;;12.45;71.36;100243.25;5074150;28;20051;-32
2022/02/17 10:07:11;;;;;;;15.82;3.28;;;;;;;12.53;72.34;100248.06;5073089;28;20040;-34
2022/02/17 10:09:41;;;;;;;17.13;3.17;;;;;;;12.61;71.53;100246.41;5061705;28;20405;-33
2022/02/17 10:12:12;;;;;;;16.17;3.33;;;;;;;12.61;71.68;100260.41;5073819;28;20451;-33
2022/02/17 10:14:43;;;;;;;17.70;3.33;;;;;;;12.64;71.82;100259.75;5072768;28;20043;-32
2022/02/17 10:17:14;;;;;;;18.27;3.70;;;;;;;12.74;71.64;100254.66;5074009;28;20139;-33
2022/02/17 10:19:47;;;;;;;18.77;3.22;;;;;;;12.74;70.46;100262.25;5073617;28;20040;-34
2022/02/17 10:22:19;;;;;;;20.13;3.83;;;;;;;12.64;70.28;100268.97;5073590;28;20052;-31
2022/02/17 10:24:49;;;;;;;17.08;3.40;;;;;;;12.53;70.84;100276.03;5073420;28;20375;-30
2022/02/17 10:27:21;;;;;;;18.52;3.38;;;;;;;12.53;71.19;100304.03;5073166;28;20044;-31
2022/02/17 10:30:00;;;;;;;13.98;2.83;;;;;;;12.65;69.87;100289.38;5073136;28;20063;-31
2022/02/17 10:32:28;;;;;;;16.92;3.08;;;;;;;12.73;70.17;100292.22;5063540;28;20131;-32
2022/02/17 10:35:11;;;;;;;15.52;3.15;;;;;;;12.79;69.38;100309.66;5072291;28;20531;-31
2022/02/17 10:37:49;;;;;;;14.57;2.95;;;;;;;12.81;69.91;100303.72;5063030;28;20054;-31
2022/02/17 10:40:19;;;;;;;16.95;2.88;;;;;;;12.62;69.40;100310.44;5068875;28;20438;-32
2022/02/17 10:43:00;;;;;;;20.10;3.53;;;;;;;12.57;69.52;100324.63;5072552;28;20088;-35
2022/02/17 10:45:39;;;;;;;18.23;2.97;;;;;;;12.65;70.83;100315.41;5071473;28;20067;-32
2022/02/17 10:48:15;;;;;;;17.13;3.45;;;;;;;12.72;71.15;100338.16;5072408;28;20051;-31
2022/02/17 10:50:43;;;;;;;19.70;4.15;;;;;;;12.84;71.42;100328.28;5073057;28;20405;-33
2022/02/17 10:53:23;;;;;;;18.05;3.15;;;;;;;12.73;69.60;100323.00;5073168;28;20055;-31
2022/02/17 10:55:52;;;;;;;16.65;3.75;;;;;;;12.64;71.17;100346.53;5069510;28;20040;-31
2022/02/17 10:58:22;;;;;;;17.60;3.53;;;;;;;12.59;71.33;100349.50;5072913;28;20081;-33
2022/02/17 11:00:51;;;;;;;18.75;3.42;;;;;;;12.49;71.11;100377.75;5073012;28;20696;-31
2022/02/17 11:03:19;;;;;;;15.57;2.88;;;;;;;12.36;71.07;100345.97;5072213;28;20056;-31
2022/02/17 11:06:08;;;;;;;15.32;2.95;;;;;;;12.40;72.28;100346.94;5072838;28;20064;-31
2022/02/17 11:08:38;;;;;;;17.10;3.03;;;;;;;12.52;72.05;100371.53;5073068;28;20044;-32
2022/02/17 11:11:06;;;;;;;19.40;3.45;;;;;;;12.48;71.34;100360.16;5070993;28;20049;-31
2022/02/17 11:13:34;;;;;;;16.77;3.15;;;;;;;12.45;71.37;100355.19;5073106;28;20072;-32
2022/02/17 11:16:09;;;;;;;16.42;2.95;;;;;;;12.27;70.03;100381.47;5071601;28;20876;-34
2022/02/17 11:18:38;;;;;;;16.75;3.53;;;;;;;12.13;71.94;100375.97;5072485;28;20136;-31
2022/02/17 11:21:06;;;;;;;21.38;3.50;;;;;;;12.17;72.70;100379.78;5072105;28;20059;-31
2022/02/17 11:23:37;;;;;;;22.83;4.10;;;;;;;12.21;72.64;100366.78;5071622;28;20040;-31
2022/02/17 11:26:20;;;;;;;14.73;2.72;;;;;;;12.16;72.47;100374.50;5072712;28;20143;-30
2022/02/17 11:28:48;;;;;;;15.00;2.90;;;;;;;12.16;73.66;100382.91;5068350;28;20059;-31
2022/02/17 11:31:16;;;;;;;15.93;2.90;;;;;;;12.21;72.86;100405.94;5071092;28;20428;-30
2022/02/17 11:33:55;;;;;;;15.93;3.10;;;;;;;12.17;72.36;100392.94;5071977;28;20040;-33
2022/02/17 11:36:32;;;;;;;17.25;3.15;;;;;;;12.06;72.67;100381.19;5072470;28;20051;-32
2022/02/17 11:39:06;;;;;;;13.57;2.80;;;;;;;12.02;73.26;100374.56;5070444;28;20497;-32
2022/02/17 11:41:38;;;;;;;15.07;2.60;;;;;;;11.98;72.76;100385.59;5071978;28;20045;-32
2022/02/17 11:44:15;;;;;;;16.00;3.43;;;;;;;11.88;71.79;100411.03;5072263;28;20054;-31